createdAt,value
2018-03-17T00:00:27.602Z,19.30
2018-03-17T00:01:27.627Z,11.10
2018-03-17T00:02:27.654Z,14.60
2018-03-17T00:03:27.681Z,13.60
2018-03-17T00:04:27.707Z,18.00
2018-03-17T00:05:27.735Z,14.30
2018-03-17T00:06:27.763Z,12.10
2018-03-17T00:07:27.791Z,14.90
2018-03-17T00:08:27.818Z,15.10
2018-03-17T00:09:27.844Z,11.30
2018-03-17T00:10:27.913Z,16.00
2018-03-17T00:11:27.896Z,17.20
2018-03-17T00:12:27.925Z,14.90
2018-03-17T00:13:27.953Z,12.50
2018-03-17T00:14:27.980Z,19.80
2018-03-17T00:15:28.007Z,14.00
2018-03-17T00:16:28.035Z,9.30
2018-03-17T00:17:28.070Z,8.70
2018-03-17T00:18:28.088Z,14.90
2018-03-17T00:19:28.114Z,13.70
2018-03-17T00:20:28.142Z,11.40
2018-03-17T00:21:28.170Z,10.80
2018-03-17T00:22:28.195Z,14.90
2018-03-17T00:23:28.223Z,14.50
2018-03-17T00:24:28.257Z,12.00
2018-03-17T00:25:28.279Z,10.80
2018-03-17T00:26:28.305Z,9.40
2018-03-17T00:27:28.331Z,15.90
2018-03-17T00:28:28.358Z,11.60
2018-03-17T00:29:28.386Z,13.40
2018-03-17T00:30:28.412Z,16.50
2018-03-17T00:31:28.439Z,15.40
2018-03-17T00:32:28.466Z,10.80
2018-03-17T00:33:28.494Z,17.70
2018-03-17T00:34:28.523Z,13.50
2018-03-17T00:35:28.548Z,13.40
2018-03-17T00:36:28.574Z,18.10
2018-03-17T00:37:28.601Z,10.80
2018-03-17T00:38:28.628Z,13.40
2018-03-17T00:39:28.654Z,10.50
2018-03-17T00:40:28.684Z,13.30
2018-03-17T00:41:28.709Z,14.50
2018-03-17T00:42:28.739Z,11.10
2018-03-17T00:43:28.765Z,18.40
2018-03-17T00:44:28.790Z,12.20
2018-03-17T00:45:28.819Z,12.90
2018-03-17T00:46:28.844Z,13.20
2018-03-17T00:47:28.871Z,11.20
2018-03-17T00:48:28.898Z,12.60
2018-03-17T00:49:28.924Z,14.80
2018-03-17T00:50:28.951Z,14.90
2018-03-17T00:51:28.980Z,15.50
2018-03-17T00:52:29.005Z,9.60
2018-03-17T00:53:29.031Z,12.00
2018-03-17T00:54:29.059Z,14.00
2018-03-17T00:55:29.086Z,16.00
2018-03-17T00:56:29.112Z,12.20
2018-03-17T00:57:29.170Z,11.50
2018-03-17T00:58:29.166Z,13.00
2018-03-17T00:59:29.193Z,10.20
2018-03-17T01:00:29.220Z,12.10
2018-03-17T01:01:29.247Z,8.60
2018-03-17T01:02:29.274Z,17.00
2018-03-17T01:03:29.300Z,9.70
2018-03-17T01:04:29.328Z,13.20
2018-03-17T01:05:29.355Z,11.80
2018-03-17T01:06:29.381Z,12.40
2018-03-17T01:07:29.408Z,17.20
2018-03-17T01:08:29.436Z,13.80
2018-03-17T01:09:29.463Z,13.40
2018-03-17T01:10:29.490Z,13.00
2018-03-17T01:11:29.517Z,11.60
2018-03-17T01:12:29.542Z,9.80
2018-03-17T01:13:29.570Z,12.20
2018-03-17T01:14:29.597Z,12.90
2018-03-17T01:15:29.622Z,9.30
2018-03-17T01:16:29.649Z,12.70
2018-03-17T01:17:29.677Z,11.50
2018-03-17T01:18:29.704Z,9.50
2018-03-17T01:19:29.730Z,11.20
2018-03-17T01:20:29.757Z,12.00
2018-03-17T01:21:29.785Z,10.60
2018-03-17T01:22:29.811Z,7.70
2018-03-17T01:23:29.837Z,12.10
2018-03-17T01:24:29.863Z,10.40
2018-03-17T01:25:29.891Z,11.70
2018-03-17T01:26:29.920Z,8.70
2018-03-17T01:27:29.944Z,9.80
2018-03-17T01:28:29.970Z,7.90
2018-03-17T01:29:29.997Z,16.60
2018-03-17T01:30:30.025Z,10.60
2018-03-17T01:31:30.051Z,12.00
2018-03-17T01:32:30.078Z,14.00
2018-03-17T01:33:30.105Z,14.70
2018-03-17T01:34:30.132Z,13.70
2018-03-17T01:35:30.160Z,9.90
2018-03-17T01:36:30.185Z,11.90
2018-03-17T01:37:30.212Z,8.70
2018-03-17T01:38:30.240Z,10.00
2018-03-17T01:39:30.267Z,9.80
2018-03-17T01:40:30.293Z,10.00
2018-03-17T01:41:30.319Z,10.50
2018-03-17T01:42:30.347Z,9.80
2018-03-17T01:43:30.373Z,10.30
2018-03-17T01:44:30.400Z,9.40
2018-03-17T01:45:30.426Z,11.10
2018-03-17T01:46:30.453Z,10.20
2018-03-17T01:47:30.480Z,10.80
2018-03-17T01:48:30.511Z,11.90
2018-03-17T01:49:30.534Z,15.40
2018-03-17T01:50:30.562Z,14.90
2018-03-17T01:51:30.588Z,11.10
2018-03-17T01:52:30.614Z,13.80
2018-03-17T01:53:30.642Z,11.10
2018-03-17T01:54:30.669Z,14.10
2018-03-17T01:55:30.694Z,15.80
2018-03-17T01:56:30.722Z,17.10
2018-03-17T01:57:30.749Z,11.00
2018-03-17T01:58:30.776Z,11.40
2018-03-17T01:59:30.802Z,9.50
2018-03-17T02:00:30.830Z,17.30
2018-03-17T02:01:30.859Z,11.80
2018-03-17T02:02:30.883Z,9.30
2018-03-17T02:03:30.912Z,9.30
2018-03-17T02:04:30.936Z,12.50
2018-03-17T02:05:30.962Z,12.10
2018-03-17T02:06:30.989Z,12.80
2018-03-17T02:07:31.016Z,13.80
2018-03-17T02:08:31.043Z,13.90
2018-03-17T02:09:31.075Z,14.80
2018-03-17T02:10:31.098Z,16.30
2018-03-17T02:11:31.122Z,9.10
2018-03-17T02:12:31.150Z,14.10
2018-03-17T02:13:31.176Z,11.20
2018-03-17T02:14:31.202Z,12.10
2018-03-17T02:15:31.228Z,17.60
2018-03-17T02:16:31.256Z,18.90
2018-03-17T02:17:31.281Z,12.60
2018-03-17T02:18:31.310Z,14.20
2018-03-17T02:19:31.335Z,16.00
2018-03-17T02:20:31.362Z,16.00
2018-03-17T02:21:31.387Z,13.10
2018-03-17T02:22:31.418Z,15.10
2018-03-17T02:23:31.441Z,12.50
2018-03-17T02:24:31.468Z,14.40
2018-03-17T02:25:31.495Z,12.10
2018-03-17T02:26:31.521Z,12.70
2018-03-17T02:27:31.548Z,13.20
2018-03-17T02:28:31.574Z,17.80
2018-03-17T02:29:31.601Z,17.20
2018-03-17T02:30:31.628Z,12.40
2018-03-17T02:31:31.661Z,17.00
2018-03-17T02:32:31.680Z,9.80
2018-03-17T02:33:31.709Z,15.50
2018-03-17T02:34:31.737Z,23.10
2018-03-17T02:35:31.769Z,11.40
2018-03-17T02:36:31.787Z,13.20
2018-03-17T02:37:31.813Z,14.00
2018-03-17T02:38:31.842Z,17.50
2018-03-17T02:39:31.866Z,16.60
2018-03-17T02:40:31.894Z,13.40
2018-03-17T02:41:31.926Z,17.60
2018-03-17T02:42:31.948Z,13.90
2018-03-17T02:43:31.975Z,16.00
2018-03-17T02:44:32.000Z,14.20
2018-03-17T02:45:32.026Z,18.80
2018-03-17T02:46:32.055Z,12.20
2018-03-17T02:47:32.077Z,16.10
2018-03-17T02:48:32.110Z,12.30
2018-03-17T02:49:32.131Z,12.30
2018-03-17T02:50:32.157Z,14.40
2018-03-17T02:51:32.182Z,11.40
2018-03-17T02:52:32.267Z,15.30
2018-03-17T02:53:32.239Z,9.50
2018-03-17T02:54:32.263Z,9.40
2018-03-17T02:55:32.288Z,8.40
2018-03-17T02:56:32.316Z,10.90
2018-03-17T02:57:32.344Z,11.40
2018-03-17T02:58:32.369Z,10.90
2018-03-17T02:59:32.394Z,15.30
2018-03-17T03:00:32.422Z,14.40
2018-03-17T03:01:32.449Z,11.90
2018-03-17T03:02:32.477Z,14.50
2018-03-17T03:03:32.499Z,11.90
2018-03-17T03:04:32.528Z,7.60
2018-03-17T03:05:32.554Z,9.00
2018-03-17T03:06:32.580Z,10.00
2018-03-17T03:07:32.609Z,12.60
2018-03-17T03:08:32.633Z,9.10
2018-03-17T03:09:32.660Z,10.40
2018-03-17T03:10:32.688Z,13.50
2018-03-17T03:11:32.713Z,12.60
2018-03-17T03:12:32.739Z,8.40
2018-03-17T03:13:32.765Z,9.90
2018-03-17T03:14:32.792Z,13.20
2018-03-17T03:15:32.818Z,14.20
2018-03-17T03:16:32.850Z,13.20
2018-03-17T03:17:32.873Z,9.10
2018-03-17T03:18:32.897Z,10.60
2018-03-17T03:19:32.923Z,17.60
2018-03-17T03:20:32.950Z,8.90
2018-03-17T03:21:32.977Z,8.30
2018-03-17T03:22:33.002Z,11.40
2018-03-17T03:23:33.028Z,7.60
2018-03-17T03:24:33.056Z,10.40
2018-03-17T03:25:33.084Z,7.40
2018-03-17T03:26:33.110Z,13.10
2018-03-17T03:27:33.135Z,7.50
2018-03-17T03:28:33.169Z,8.40
2018-03-17T03:29:33.190Z,11.60
2018-03-17T03:30:33.217Z,10.90
2018-03-17T03:31:33.244Z,6.80
2018-03-17T03:32:33.269Z,7.90
2018-03-17T03:33:33.295Z,9.00
2018-03-17T03:34:33.322Z,5.90
2018-03-17T03:35:33.348Z,7.40
2018-03-17T03:36:33.375Z,9.00
2018-03-17T03:37:33.401Z,11.50
2018-03-17T03:38:33.428Z,10.80
2018-03-17T03:39:33.455Z,12.00
2018-03-17T03:40:33.481Z,10.20
2018-03-17T03:41:33.508Z,9.50
2018-03-17T03:42:33.537Z,11.20
2018-03-17T03:43:33.561Z,16.60
2018-03-17T03:44:33.588Z,10.70
2018-03-17T03:45:33.614Z,11.90
2018-03-17T03:46:33.641Z,15.80
2018-03-17T03:47:33.669Z,18.10
2018-03-17T03:48:33.693Z,12.30
2018-03-17T03:49:33.721Z,14.90
2018-03-17T03:50:33.746Z,10.10
2018-03-17T03:51:33.772Z,15.70
2018-03-17T03:52:33.798Z,26.10
2018-03-17T03:53:33.825Z,20.50
2018-03-17T03:54:33.852Z,15.20
2018-03-17T03:55:33.878Z,13.90
2018-03-17T03:56:33.908Z,10.50
2018-03-17T03:57:33.931Z,12.40
2018-03-17T03:58:33.958Z,10.00
2018-03-17T03:59:33.987Z,9.60
2018-03-17T04:00:34.010Z,13.00
2018-03-17T04:01:34.038Z,13.70
2018-03-17T04:02:34.063Z,10.80
2018-03-17T04:03:34.092Z,12.30
2018-03-17T04:04:34.117Z,8.80
2018-03-17T04:05:34.143Z,9.60
2018-03-17T04:06:34.170Z,11.40
2018-03-17T04:07:34.196Z,11.10
2018-03-17T04:08:34.223Z,11.80
2018-03-17T04:09:34.250Z,10.80
2018-03-17T04:10:34.276Z,13.60
2018-03-17T04:11:34.304Z,12.00
2018-03-17T04:12:34.329Z,6.80
2018-03-17T04:13:34.357Z,10.70
2018-03-17T04:14:34.383Z,8.40
2018-03-17T04:15:34.417Z,8.40
2018-03-17T04:16:34.436Z,10.70
2018-03-17T04:17:34.463Z,11.90
2018-03-17T04:18:34.490Z,10.70
2018-03-17T04:19:34.514Z,15.80
2018-03-17T04:20:34.542Z,9.70
2018-03-17T04:21:34.568Z,14.30
2018-03-17T04:22:34.595Z,9.40
2018-03-17T04:23:34.621Z,11.80
2018-03-17T04:24:34.648Z,8.40
2018-03-17T04:25:34.675Z,8.70
2018-03-17T04:26:34.700Z,10.50
2018-03-17T04:27:34.730Z,11.30
2018-03-17T04:28:34.755Z,11.70
2018-03-17T04:29:34.785Z,8.50
2018-03-17T04:30:34.808Z,8.40
2018-03-17T04:31:34.833Z,9.00
2018-03-17T04:32:34.859Z,13.20
2018-03-17T04:33:34.887Z,9.90
2018-03-17T04:34:34.920Z,10.70
2018-03-17T04:35:34.940Z,9.80
2018-03-17T04:36:34.968Z,12.10
2018-03-17T04:37:34.994Z,12.90
2018-03-17T04:38:35.022Z,9.70
2018-03-17T04:39:35.046Z,9.60
2018-03-17T04:40:35.073Z,10.00
2018-03-17T04:41:35.100Z,12.20
2018-03-17T04:42:35.128Z,11.40
2018-03-17T04:43:35.153Z,14.70
2018-03-17T04:44:35.180Z,12.20
2018-03-17T04:45:35.206Z,13.20
2018-03-17T04:46:35.235Z,13.70
2018-03-17T04:47:35.259Z,13.10
2018-03-17T04:48:35.288Z,13.90
2018-03-17T04:49:35.315Z,11.70
2018-03-17T04:50:35.343Z,14.80
2018-03-17T04:51:35.366Z,18.00
2018-03-17T04:52:35.396Z,13.70
2018-03-17T04:53:35.421Z,13.00
2018-03-17T04:54:35.448Z,13.10
2018-03-17T04:55:35.474Z,14.40
2018-03-17T04:56:35.500Z,12.40
2018-03-17T04:57:35.527Z,15.70
2018-03-17T04:58:35.555Z,13.90
2018-03-17T04:59:35.580Z,13.30
2018-03-17T05:00:35.608Z,10.10
2018-03-17T05:01:35.635Z,9.30
2018-03-17T05:02:35.661Z,16.60
2018-03-17T05:03:35.688Z,12.80
2018-03-17T05:04:35.714Z,14.60
2018-03-17T05:05:35.742Z,8.30
2018-03-17T05:06:35.768Z,12.90
2018-03-17T05:07:35.793Z,8.80
2018-03-17T05:08:35.822Z,13.20
2018-03-17T05:09:35.849Z,10.30
2018-03-17T05:10:35.878Z,16.20
2018-03-17T05:11:35.901Z,11.10
2018-03-17T05:12:35.928Z,8.60
2018-03-17T05:13:35.956Z,11.80
2018-03-17T05:14:35.991Z,8.90
2018-03-17T05:15:36.009Z,14.00
2018-03-17T05:16:36.036Z,11.80
2018-03-17T05:17:36.063Z,9.60
2018-03-17T05:18:36.091Z,8.40
2018-03-17T05:19:36.117Z,10.80
2018-03-17T05:20:36.144Z,9.30
2018-03-17T05:21:36.171Z,9.20
2018-03-17T05:22:36.199Z,7.70
2018-03-17T05:23:36.225Z,12.90
2018-03-17T05:24:36.251Z,9.90
2018-03-17T05:25:36.279Z,8.80
2018-03-17T05:26:36.307Z,8.30
2018-03-17T05:27:36.330Z,8.40
2018-03-17T05:28:36.358Z,10.80
2018-03-17T05:29:36.385Z,8.40
2018-03-17T05:30:36.414Z,13.20
2018-03-17T05:31:36.439Z,13.10
2018-03-17T05:32:36.467Z,11.40
2018-03-17T05:33:36.493Z,10.00
2018-03-17T05:34:36.521Z,9.70
2018-03-17T05:35:36.548Z,10.70
2018-03-17T05:36:36.575Z,7.70
2018-03-17T05:37:36.602Z,6.80
2018-03-17T05:38:36.632Z,7.40
2018-03-17T05:39:36.656Z,7.90
2018-03-17T05:40:36.682Z,11.10
2018-03-17T05:41:36.710Z,10.50
2018-03-17T05:42:36.738Z,7.10
2018-03-17T05:43:36.763Z,6.40
2018-03-17T05:44:36.790Z,9.80
2018-03-17T05:45:36.818Z,6.30
2018-03-17T05:46:36.843Z,9.70
2018-03-17T05:47:36.870Z,7.50
2018-03-17T05:48:36.898Z,8.30
2018-03-17T05:49:36.925Z,6.30
2018-03-17T05:50:36.952Z,12.60
2018-03-17T05:51:36.979Z,7.90
2018-03-17T05:52:37.007Z,16.50
2018-03-17T05:53:37.033Z,12.10
2018-03-17T05:54:37.060Z,7.90
2018-03-17T05:55:37.087Z,7.90
2018-03-17T05:56:37.115Z,6.20
2018-03-17T05:57:37.141Z,6.70
2018-03-17T05:58:37.229Z,7.10
2018-03-17T05:59:37.196Z,7.90
2018-03-17T06:00:37.222Z,8.20
2018-03-17T06:01:37.248Z,9.70
2018-03-17T06:02:37.279Z,8.70
2018-03-17T06:03:37.305Z,10.10
2018-03-17T06:04:37.330Z,17.20
2018-03-17T06:05:37.357Z,10.00
2018-03-17T06:06:37.385Z,10.70
2018-03-17T06:07:37.411Z,9.40
2018-03-17T06:08:37.437Z,7.90
2018-03-17T06:09:37.465Z,11.50
2018-03-17T06:10:37.493Z,11.50
2018-03-17T06:11:37.522Z,6.50
2018-03-17T06:12:37.546Z,8.10
2018-03-17T06:13:37.574Z,8.50
2018-03-17T06:14:37.602Z,14.00
2018-03-17T06:15:37.628Z,11.60
2018-03-17T06:16:37.659Z,12.60
2018-03-17T06:17:37.683Z,12.70
2018-03-17T06:18:37.711Z,19.10
2018-03-17T06:19:37.737Z,12.30
2018-03-17T06:20:37.765Z,11.80
2018-03-17T06:21:37.793Z,11.40
2018-03-17T06:22:37.820Z,11.40
2018-03-17T06:23:37.847Z,9.30
2018-03-17T06:24:37.873Z,11.10
2018-03-17T06:25:37.901Z,10.40
2018-03-17T06:26:37.928Z,8.80
2018-03-17T06:27:37.956Z,12.40
2018-03-17T06:28:37.986Z,8.50
2018-03-17T06:29:38.012Z,7.80
2018-03-17T06:30:38.040Z,7.30
2018-03-17T06:31:38.067Z,9.50
2018-03-17T06:32:38.095Z,12.10
2018-03-17T06:33:38.123Z,11.20
2018-03-17T06:34:38.150Z,12.40
2018-03-17T06:35:38.178Z,8.10
2018-03-17T06:36:38.210Z,9.60
2018-03-17T06:37:38.235Z,10.40
2018-03-17T06:38:38.261Z,9.40
2018-03-17T06:39:38.288Z,7.00
2018-03-17T06:40:38.316Z,11.10
2018-03-17T06:41:38.344Z,8.80
2018-03-17T06:42:38.371Z,8.90
2018-03-17T06:43:38.398Z,9.50
2018-03-17T06:44:38.426Z,7.20
2018-03-17T06:45:38.454Z,6.40
2018-03-17T06:46:38.482Z,8.60
2018-03-17T06:47:38.509Z,9.10
2018-03-17T06:48:38.538Z,7.40
2018-03-17T06:49:38.565Z,9.60
2018-03-17T06:50:38.593Z,6.20
2018-03-17T06:51:38.620Z,8.30
2018-03-17T06:52:38.648Z,9.70
2018-03-17T06:53:38.676Z,11.00
2018-03-17T06:54:39.004Z,13.30
2018-03-17T06:55:38.760Z,24.10
2018-03-17T06:56:38.790Z,29.10
2018-03-17T06:57:38.808Z,32.80
2018-03-17T06:58:38.842Z,39.50
2018-03-17T06:59:38.843Z,50.80
2018-03-17T07:00:38.931Z,65.20
2018-03-17T07:01:38.900Z,84.80
2018-03-17T07:02:38.929Z,96.20
2018-03-17T07:03:38.961Z,97.80
2018-03-17T07:04:38.985Z,92.10
2018-03-17T07:05:39.012Z,98.50
2018-03-17T07:06:39.042Z,107.20
2018-03-17T07:07:39.069Z,106.90
2018-03-17T07:08:39.097Z,109.20
2018-03-17T07:09:39.126Z,104.10
2018-03-17T07:10:39.154Z,105.70
2018-03-17T07:11:39.181Z,104.30
2018-03-17T07:12:39.210Z,101.90
2018-03-17T07:13:39.240Z,97.00
2018-03-17T07:14:39.273Z,91.20
2018-03-17T07:15:39.294Z,104.80
2018-03-17T07:16:39.322Z,96.50
2018-03-17T07:17:39.351Z,110.00
2018-03-17T07:18:39.380Z,104.50
2018-03-17T07:19:39.408Z,106.60
2018-03-17T07:20:39.436Z,104.00
2018-03-17T07:21:39.464Z,100.10
2018-03-17T07:22:39.493Z,104.60
2018-03-17T07:23:39.521Z,120.10
2018-03-17T07:24:39.549Z,98.80
2018-03-17T07:25:39.577Z,105.40
2018-03-17T07:26:39.606Z,102.20
2018-03-17T07:27:39.634Z,96.70
2018-03-17T07:28:39.662Z,100.00
2018-03-17T07:29:39.691Z,98.90
2018-03-17T07:30:39.719Z,100.40
2018-03-17T07:31:39.747Z,98.90
2018-03-17T07:32:39.774Z,108.60
2018-03-17T07:33:39.802Z,94.20
2018-03-17T07:34:39.834Z,88.80
2018-03-17T07:35:39.863Z,87.90
2018-03-17T07:36:39.898Z,83.60
2018-03-17T07:37:39.917Z,87.80
2018-03-17T07:38:39.946Z,85.30
2018-03-17T07:39:39.975Z,89.30
2018-03-17T07:40:40.006Z,85.60
2018-03-17T07:41:40.032Z,86.80
2018-03-17T07:42:40.061Z,81.60
2018-03-17T07:43:40.089Z,81.90
2018-03-17T07:44:40.116Z,82.90
2018-03-17T07:45:40.147Z,81.50
2018-03-17T07:46:40.175Z,79.70
2018-03-17T07:47:40.203Z,76.80
2018-03-17T07:48:40.234Z,82.30
2018-03-17T07:49:40.262Z,81.10
2018-03-17T07:50:40.291Z,72.80
2018-03-17T07:51:40.319Z,80.80
2018-03-17T07:52:40.348Z,75.90
2018-03-17T07:53:40.377Z,73.90
2018-03-17T07:54:40.406Z,76.70
2018-03-17T07:55:40.435Z,76.90
2018-03-17T07:56:40.464Z,74.50
2018-03-17T07:57:40.493Z,77.60
2018-03-17T07:58:40.528Z,79.70
2018-03-17T07:59:40.551Z,83.10
2018-03-17T08:00:40.581Z,80.10
2018-03-17T08:01:40.611Z,78.90
2018-03-17T08:02:40.640Z,75.70
2018-03-17T08:03:40.669Z,72.10
2018-03-17T08:04:40.698Z,70.30
2018-03-17T08:05:40.728Z,78.50
2018-03-17T08:06:40.757Z,74.00
2018-03-17T08:07:40.786Z,70.50
2018-03-17T08:08:40.816Z,71.50
2018-03-17T08:09:40.846Z,69.10
2018-03-17T08:10:40.874Z,67.80
2018-03-17T08:11:40.903Z,68.20
2018-03-17T08:12:40.932Z,76.10
2018-03-17T08:13:40.962Z,69.90
2018-03-17T08:14:40.993Z,73.10
2018-03-17T08:15:41.021Z,70.10
2018-03-17T08:16:41.052Z,65.90
2018-03-17T08:17:41.080Z,66.00
2018-03-17T08:18:41.109Z,78.20
2018-03-17T08:19:41.138Z,71.80
2018-03-17T08:20:41.168Z,70.30
2018-03-17T08:21:41.199Z,65.20
2018-03-17T08:22:41.228Z,67.90
2018-03-17T08:23:41.256Z,69.20
2018-03-17T08:24:41.284Z,66.70
2018-03-17T08:25:41.315Z,67.20
2018-03-17T08:26:41.344Z,68.50
2018-03-17T08:27:41.378Z,61.20
2018-03-17T08:28:41.402Z,67.10
2018-03-17T08:29:41.432Z,64.40
2018-03-17T08:30:41.461Z,62.80
2018-03-17T08:31:41.491Z,73.80
2018-03-17T08:32:41.521Z,73.90
2018-03-17T08:33:41.550Z,62.40
2018-03-17T08:34:41.578Z,57.40
2018-03-17T08:35:41.607Z,63.30
2018-03-17T08:36:41.635Z,61.40
2018-03-17T08:37:41.668Z,58.40
2018-03-17T08:38:41.696Z,59.40
2018-03-17T08:39:41.724Z,57.80
2018-03-17T08:40:41.753Z,62.10
2018-03-17T08:41:41.782Z,58.10
2018-03-17T08:42:41.811Z,57.80
2018-03-17T08:43:41.840Z,65.50
2018-03-17T08:44:41.870Z,62.60
2018-03-17T08:45:41.900Z,60.80
2018-03-17T08:46:41.928Z,63.10
2018-03-17T08:47:41.958Z,62.00
2018-03-17T08:48:41.986Z,60.10
2018-03-17T08:49:42.016Z,66.40
2018-03-17T08:50:42.044Z,66.90
2018-03-17T08:51:42.074Z,60.90
2018-03-17T08:52:42.105Z,63.30
2018-03-17T08:53:42.133Z,70.80
2018-03-17T08:54:42.163Z,59.90
2018-03-17T08:55:42.191Z,60.50
2018-03-17T08:56:42.220Z,61.50
2018-03-17T08:57:42.251Z,68.70
2018-03-17T08:58:42.334Z,66.60
2018-03-17T08:59:42.306Z,65.80
2018-03-17T09:00:42.337Z,70.50
2018-03-17T09:01:42.366Z,67.80
2018-03-17T09:02:42.396Z,71.00
2018-03-17T09:03:42.425Z,64.20
2018-03-17T09:04:42.452Z,69.40
2018-03-17T09:05:42.483Z,70.40
2018-03-17T09:06:42.512Z,68.60
2018-03-17T09:07:42.541Z,68.90
2018-03-17T09:08:42.569Z,66.20
2018-03-17T09:09:42.601Z,70.10
2018-03-17T09:10:42.655Z,69.60
2018-03-17T09:11:42.658Z,68.30
2018-03-17T09:12:42.702Z,71.00
2018-03-17T09:13:42.726Z,69.40
2018-03-17T09:14:42.748Z,63.90
2018-03-17T09:15:42.777Z,66.80
2018-03-17T09:16:42.807Z,66.20
2018-03-17T09:17:42.836Z,60.40
2018-03-17T09:18:42.866Z,57.80
2018-03-17T09:19:42.896Z,61.90
2018-03-17T09:20:42.925Z,64.20
2018-03-17T09:21:42.956Z,60.20
2018-03-17T09:22:42.985Z,58.70
2018-03-17T09:23:43.016Z,64.80
2018-03-17T09:24:43.046Z,62.90
2018-03-17T09:25:43.075Z,57.30
2018-03-17T09:26:43.106Z,61.50
2018-03-17T09:27:43.137Z,59.50
2018-03-17T09:28:43.171Z,64.40
2018-03-17T09:29:43.197Z,64.70
2018-03-17T09:30:43.227Z,64.40
2018-03-17T09:31:43.255Z,61.70
2018-03-17T09:32:43.285Z,65.90
2018-03-17T09:33:43.316Z,61.20
2018-03-17T09:34:43.347Z,61.20
2018-03-17T09:35:43.375Z,63.00
2018-03-17T09:36:43.404Z,59.00
2018-03-17T09:37:43.435Z,62.70
2018-03-17T09:38:43.465Z,61.80
2018-03-17T09:39:43.496Z,61.80
2018-03-17T09:40:43.524Z,58.40
2018-03-17T09:41:43.560Z,61.30
2018-03-17T09:42:43.584Z,62.20
2018-03-17T09:43:43.613Z,66.70
2018-03-17T09:44:43.643Z,62.10
2018-03-17T09:45:43.674Z,61.20
2018-03-17T09:46:43.704Z,62.50
2018-03-17T09:47:43.737Z,58.50
2018-03-17T09:48:43.762Z,56.30
2018-03-17T09:49:43.792Z,59.90
2018-03-17T09:50:43.823Z,56.70
2018-03-17T09:51:43.851Z,58.30
2018-03-17T09:52:43.883Z,65.00
2018-03-17T09:53:43.913Z,60.40
2018-03-17T09:54:43.943Z,64.90
2018-03-17T09:55:43.971Z,57.90
2018-03-17T09:56:44.000Z,62.10
2018-03-17T09:57:44.031Z,59.50
2018-03-17T09:58:44.060Z,58.50
2018-03-17T09:59:44.725Z,58.70
2018-03-17T10:00:44.119Z,57.60
2018-03-17T10:01:44.149Z,58.20
2018-03-17T10:02:44.179Z,54.30
2018-03-17T10:03:44.206Z,59.20
2018-03-17T10:04:44.238Z,58.10
2018-03-17T10:05:44.268Z,56.80
2018-03-17T10:06:44.297Z,64.10
2018-03-17T10:07:44.327Z,60.00
2018-03-17T10:08:44.356Z,64.00
2018-03-17T10:09:44.386Z,58.60
2018-03-17T10:10:44.416Z,61.20
2018-03-17T10:11:44.445Z,60.20
2018-03-17T10:12:44.477Z,65.20
2018-03-17T10:13:44.506Z,63.20
2018-03-17T10:14:44.535Z,64.90
2018-03-17T10:15:44.564Z,60.10
2018-03-17T10:16:44.594Z,80.60
2018-03-17T10:17:44.624Z,67.00
2018-03-17T10:18:44.653Z,58.80
2018-03-17T10:19:44.683Z,64.90
2018-03-17T10:20:44.713Z,60.10
2018-03-17T10:21:44.741Z,59.90
2018-03-17T10:22:44.772Z,63.90
2018-03-17T10:23:44.800Z,61.30
2018-03-17T10:24:44.831Z,68.30
2018-03-17T10:25:44.862Z,62.30
2018-03-17T10:26:44.890Z,64.70
2018-03-17T10:27:44.919Z,61.00
2018-03-17T10:28:44.949Z,58.70
2018-03-17T10:29:44.979Z,58.80
2018-03-17T10:30:45.008Z,57.30
2018-03-17T10:31:45.038Z,60.30
2018-03-17T10:32:45.067Z,57.70
2018-03-17T10:33:45.119Z,59.40
2018-03-17T10:34:45.128Z,57.80
2018-03-17T10:35:45.156Z,64.30
2018-03-17T10:36:45.186Z,59.60
2018-03-17T10:37:45.216Z,58.20
2018-03-17T10:38:45.245Z,61.70
2018-03-17T10:39:45.296Z,62.20
2018-03-17T10:40:45.311Z,59.10
2018-03-17T10:41:45.335Z,61.80
2018-03-17T10:42:45.365Z,61.10
2018-03-17T10:43:45.400Z,59.00
2018-03-17T10:44:45.425Z,58.80
2018-03-17T10:45:45.457Z,58.30
2018-03-17T10:46:45.484Z,55.50
2018-03-17T10:47:45.559Z,57.90
2018-03-17T10:48:45.544Z,57.20
2018-03-17T10:49:45.581Z,56.90
2018-03-17T10:50:45.604Z,55.60
2018-03-17T10:51:45.635Z,52.40
2018-03-17T10:52:45.666Z,57.10
2018-03-17T10:53:45.694Z,57.90
2018-03-17T10:54:45.724Z,54.10
2018-03-17T10:55:45.755Z,51.10
2018-03-17T10:56:45.785Z,51.20
2018-03-17T10:57:45.815Z,52.80
2018-03-17T10:58:45.857Z,51.90
2018-03-17T10:59:45.876Z,52.20
2018-03-17T11:00:45.905Z,54.10
2018-03-17T11:01:45.936Z,50.50
2018-03-17T11:02:45.966Z,54.30
2018-03-17T11:03:45.995Z,55.60
2018-03-17T11:04:46.026Z,52.70
2018-03-17T11:05:46.057Z,58.60
2018-03-17T11:06:46.088Z,51.60
2018-03-17T11:07:46.117Z,53.50
2018-03-17T11:08:46.148Z,53.60
2018-03-17T11:09:46.182Z,53.60
2018-03-17T11:10:46.210Z,52.30
2018-03-17T11:11:46.239Z,50.80
2018-03-17T11:12:46.269Z,54.30
2018-03-17T11:13:46.302Z,51.30
2018-03-17T11:14:46.330Z,52.70
2018-03-17T11:15:46.360Z,60.10
2018-03-17T11:16:46.390Z,53.10
2018-03-17T11:17:46.421Z,52.30
2018-03-17T11:18:46.451Z,49.80
2018-03-17T11:19:46.481Z,51.50
2018-03-17T11:20:46.511Z,53.00
2018-03-17T11:21:46.547Z,53.50
2018-03-17T11:22:46.573Z,51.60
2018-03-17T11:23:46.604Z,53.00
2018-03-17T11:24:46.631Z,51.70
2018-03-17T11:25:46.662Z,56.00
2018-03-17T11:26:46.697Z,49.80
2018-03-17T11:27:46.724Z,52.90
2018-03-17T11:28:46.757Z,51.10
2018-03-17T11:29:46.784Z,52.40
2018-03-17T11:30:46.814Z,55.40
2018-03-17T11:31:46.844Z,53.60
2018-03-17T11:32:46.874Z,58.70
2018-03-17T11:33:46.952Z,51.40
2018-03-17T11:34:46.935Z,53.00
2018-03-17T11:35:46.964Z,49.20
2018-03-17T11:36:46.994Z,52.60
2018-03-17T11:37:47.024Z,51.90
2018-03-17T11:38:47.055Z,52.20
2018-03-17T11:39:47.085Z,53.90
2018-03-17T11:40:47.115Z,52.90
2018-03-17T11:41:47.146Z,51.20
2018-03-17T11:42:47.176Z,50.00
2018-03-17T11:43:47.206Z,50.50
2018-03-17T11:44:47.236Z,49.90
2018-03-17T11:45:47.267Z,53.70
2018-03-17T11:46:47.295Z,51.30
2018-03-17T11:47:47.325Z,52.50
2018-03-17T11:48:47.356Z,55.30
2018-03-17T11:49:47.387Z,49.90
2018-03-17T11:50:47.417Z,52.70
2018-03-17T11:51:47.448Z,52.30
2018-03-17T11:52:47.478Z,55.60
2018-03-17T11:53:47.507Z,50.50
2018-03-17T11:54:47.538Z,53.30
2018-03-17T11:55:47.567Z,53.60
2018-03-17T11:56:47.598Z,51.40
2018-03-17T11:57:47.628Z,53.70
2018-03-17T11:58:47.658Z,51.60
2018-03-17T11:59:47.686Z,45.60
2018-03-17T12:00:47.717Z,54.30
2018-03-17T12:01:47.750Z,49.10
2018-03-17T12:02:47.793Z,55.80
2018-03-17T12:03:47.807Z,58.10
2018-03-17T12:04:47.837Z,47.50
2018-03-17T12:05:47.867Z,50.20
2018-03-17T12:06:47.901Z,52.60
2018-03-17T12:07:47.928Z,51.50
2018-03-17T12:08:47.957Z,54.80
2018-03-17T12:09:47.988Z,49.90
2018-03-17T12:10:48.017Z,46.50
2018-03-17T12:11:48.047Z,45.80
2018-03-17T12:12:48.081Z,49.50
2018-03-17T12:13:48.106Z,52.60
2018-03-17T12:14:48.137Z,55.30
2018-03-17T12:15:48.165Z,47.60
2018-03-17T12:16:48.195Z,51.00
2018-03-17T12:17:48.226Z,48.70
2018-03-17T12:18:48.256Z,46.30
2018-03-17T12:19:48.285Z,48.00
2018-03-17T12:20:48.320Z,50.50
2018-03-17T12:21:48.343Z,44.80
2018-03-17T12:22:48.373Z,48.50
2018-03-17T12:23:48.403Z,49.40
2018-03-17T12:24:48.433Z,44.70
2018-03-17T12:25:48.464Z,49.00
2018-03-17T12:26:48.494Z,46.80
2018-03-17T12:27:48.523Z,47.40
2018-03-17T12:28:48.552Z,48.60
2018-03-17T12:29:48.582Z,48.00
2018-03-17T12:30:48.612Z,49.50
2018-03-17T12:31:48.640Z,52.00
2018-03-17T12:32:48.672Z,50.50
2018-03-17T12:33:48.701Z,46.00
2018-03-17T12:34:48.739Z,51.80
2018-03-17T12:35:48.760Z,51.00
2018-03-17T12:36:48.790Z,49.70
2018-03-17T12:37:48.820Z,47.80
2018-03-17T12:38:48.849Z,46.30
2018-03-17T12:39:48.878Z,50.70
2018-03-17T12:40:48.908Z,46.20
2018-03-17T12:41:48.941Z,45.40
2018-03-17T12:42:48.967Z,48.10
2018-03-17T12:43:48.995Z,49.00
2018-03-17T12:44:49.027Z,48.40
2018-03-17T12:45:49.058Z,46.60
2018-03-17T12:46:49.086Z,43.30
2018-03-17T12:47:49.114Z,48.00
2018-03-17T12:48:49.144Z,51.80
2018-03-17T12:49:49.174Z,45.60
2018-03-17T12:50:49.204Z,47.70
2018-03-17T12:51:49.233Z,48.90
2018-03-17T12:52:49.262Z,54.60
2018-03-17T12:53:49.295Z,51.60
2018-03-17T12:54:49.320Z,50.90
2018-03-17T12:55:49.350Z,50.40
2018-03-17T12:56:49.385Z,46.70